Forside
METAR-TAF:

METAR-TAF

Lufthavne :

Stanton, Minnesota, USA

Breddekreds: 44-28-32N, længdekreds: 093-00-59W, højde: 280 m

Aktuelle vejr

Denne rapport blev lavet for 30 minutter siden, kl. 02:36 UTC
Vind 4 kt fra syd
Temperatur 22°C
Fugtighed 83%
Tryk 1010 hPa
Sigt: 16.1 km
Spredte skyer i en højde af 3300 ft
Brudte skyer i en højde af 3900 ft
Overskyet i en højde af 4600 ft

METAR: KSYN 250236Z AUTO 18004KT 10SM SCT033 BKN039 OVC046 22/19 A2982 RMK AO2 T02190192

Tid: 22:06 (03:06 UTC)


TAF: fraværende

Vejrobservationer og prognoser fra mere end 4000 lufthavne (METAR og TAF).

De gule og røde prikker repræsenterer de meteorologiske stationer.

Flyt musen over at se navnet på stationen.

Så klik over at se vejr observationer og prognoser.

At skifte det kort: Klik på de grønne knapper med et sort kors for at zoome ind; på den grønne knap med en bindestreg for at zoome ud; eller på de grønne pile for tilstødende kort.


METAR-TAF: